createdAt,value
2022-11-22T00:00:25.559Z,99678.56
2022-11-22T00:02:52.394Z,99672.56
2022-11-22T00:05:19.475Z,99676.16
2022-11-22T00:07:46.169Z,99679.25
2022-11-22T00:10:16.313Z,99681.16
2022-11-22T00:12:44.484Z,99675.03
2022-11-22T00:15:11.797Z,99681.03
2022-11-22T00:17:39.112Z,99663.03
2022-11-22T00:20:07.908Z,99648.16
2022-11-22T00:22:38.523Z,99650.00
2022-11-22T00:25:08.420Z,99639.47
2022-11-22T00:27:35.175Z,99636.03
2022-11-22T00:30:01.860Z,99624.72
2022-11-22T00:32:28.482Z,99629.31
2022-11-22T00:34:55.161Z,99625.59
2022-11-22T00:37:21.876Z,99625.00
2022-11-22T00:39:48.467Z,99623.09
2022-11-22T00:42:15.160Z,99609.66
2022-11-22T00:44:41.784Z,99611.34
2022-11-22T00:47:08.380Z,99622.41
2022-11-22T00:49:35.000Z,99609.53
2022-11-22T00:52:01.658Z,99613.69
2022-11-22T00:54:28.809Z,99600.88
2022-11-22T00:56:55.420Z,99607.75
2022-11-22T00:59:22.018Z,99605.31
2022-11-22T01:01:48.700Z,99598.22
2022-11-22T01:04:15.326Z,99602.84
2022-11-22T01:06:41.956Z,99592.59
2022-11-22T01:09:08.568Z,99596.00
2022-11-22T01:11:35.175Z,99603.84
2022-11-22T01:14:02.082Z,99591.00
2022-11-22T01:16:28.689Z,99581.56
2022-11-22T01:18:55.358Z,99588.59
2022-11-22T01:21:21.998Z,99593.81
2022-11-22T01:23:48.666Z,99593.06
2022-11-22T01:26:15.393Z,99598.13
2022-11-22T01:28:41.991Z,99592.28
2022-11-22T01:31:09.414Z,99593.09
2022-11-22T01:33:36.127Z,99605.38
2022-11-22T01:36:02.763Z,99592.53
2022-11-22T01:38:29.388Z,99598.44
2022-11-22T01:40:55.963Z,99595.09
2022-11-22T01:43:25.146Z,99585.63
2022-11-22T01:45:56.883Z,99588.31
2022-11-22T01:48:38.539Z,99578.13
2022-11-22T01:51:25.674Z,99591.91
2022-11-22T01:53:52.575Z,99591.03
2022-11-22T01:56:20.714Z,99591.03
2022-11-22T01:58:50.357Z,99599.69
2022-11-22T02:01:17.112Z,99593.78
2022-11-22T02:03:46.540Z,99584.91
2022-11-22T02:06:13.870Z,99588.59
2022-11-22T02:08:47.476Z,99592.88
2022-11-22T02:11:14.066Z,99591.16
2022-11-22T02:13:42.826Z,99591.16
2022-11-22T02:16:10.597Z,99590.31
2022-11-22T02:18:37.735Z,99586.13
2022-11-22T02:21:04.889Z,99583.47
2022-11-22T02:23:36.912Z,99576.63
2022-11-22T02:26:03.973Z,99578.22
2022-11-22T02:28:33.460Z,99581.84
2022-11-22T02:31:00.210Z,99580.09
2022-11-22T02:33:26.866Z,99588.47
2022-11-22T02:35:53.650Z,99589.41
2022-11-22T02:38:26.213Z,99580.78
2022-11-22T02:40:55.834Z,99582.53
2022-11-22T02:43:38.299Z,99571.38
2022-11-22T02:46:12.831Z,99572.25
2022-11-22T02:48:43.546Z,99569.66
2022-11-22T02:51:10.577Z,99567.94
2022-11-22T02:53:37.458Z,99549.91
2022-11-22T02:56:04.132Z,99549.81
2022-11-22T02:58:30.766Z,99542.09
2022-11-22T03:00:57.856Z,99546.47
2022-11-22T03:03:24.496Z,99534.44
2022-11-22T03:05:51.120Z,99525.78
2022-11-22T03:08:17.760Z,99540.44
2022-11-22T03:10:44.387Z,99531.94
2022-11-22T03:13:11.123Z,99531.88
2022-11-22T03:15:37.771Z,99536.91
2022-11-22T03:18:04.794Z,99536.16
2022-11-22T03:20:32.766Z,99546.59
2022-11-22T03:23:02.652Z,99548.31
2022-11-22T03:25:29.300Z,99556.09
2022-11-22T03:27:55.941Z,99550.81
2022-11-22T03:30:22.583Z,99552.53
2022-11-22T03:32:49.238Z,99537.97
2022-11-22T03:35:15.940Z,99538.00
2022-11-22T03:37:42.558Z,99538.88
2022-11-22T03:40:09.546Z,99544.03
2022-11-22T03:42:36.163Z,99558.84
2022-11-22T03:45:02.861Z,99554.38
2022-11-22T03:47:29.572Z,99563.94
2022-11-22T03:49:56.179Z,99551.00
2022-11-22T03:52:22.997Z,99537.13
2022-11-22T03:54:50.525Z,99528.59
2022-11-22T03:57:17.504Z,99538.09
2022-11-22T03:59:44.199Z,99545.84
2022-11-22T04:02:10.894Z,99533.72
2022-11-22T04:04:37.572Z,99537.78
2022-11-22T04:07:04.211Z,99526.75
2022-11-22T04:09:31.168Z,99542.41
2022-11-22T04:11:57.988Z,99536.38
2022-11-22T04:14:43.213Z,99532.94
2022-11-22T04:17:13.492Z,99520.09
2022-11-22T04:20:00.047Z,99518.28
2022-11-22T04:22:26.653Z,99508.81
2022-11-22T04:25:11.890Z,99499.28
2022-11-22T04:27:38.474Z,99496.00
2022-11-22T04:30:05.474Z,99477.91
2022-11-22T04:32:47.183Z,99480.56
2022-11-22T04:35:18.557Z,99484.72
2022-11-22T04:37:51.450Z,99482.22
2022-11-22T04:40:18.101Z,99471.88
2022-11-22T04:43:03.458Z,99472.78
2022-11-22T04:45:30.347Z,99471.78
2022-11-22T04:47:59.847Z,99464.88
2022-11-22T04:50:58.072Z,99479.63
2022-11-22T04:53:25.862Z,99485.53
2022-11-22T04:55:52.483Z,99497.72
2022-11-22T04:58:20.335Z,99498.59
2022-11-22T05:00:47.627Z,99486.53
2022-11-22T05:03:14.511Z,99485.81
2022-11-22T05:05:43.010Z,99487.38
2022-11-22T05:08:10.160Z,99493.53
2022-11-22T05:10:56.619Z,99486.72
2022-11-22T05:13:37.347Z,99483.16
2022-11-22T05:16:05.697Z,99485.88
2022-11-22T05:18:32.578Z,99479.84
2022-11-22T05:21:00.723Z,99476.28
2022-11-22T05:23:45.943Z,99471.16
2022-11-22T05:26:12.554Z,99483.19
2022-11-22T05:28:39.936Z,99478.81
2022-11-22T05:31:12.524Z,99479.63
2022-11-22T05:33:40.806Z,99470.16
2022-11-22T05:36:07.863Z,99486.53
2022-11-22T05:38:35.779Z,99489.31
2022-11-22T05:41:05.821Z,99490.91
2022-11-22T05:43:33.439Z,99486.72
2022-11-22T05:46:09.018Z,99488.47
2022-11-22T05:48:36.644Z,99477.22
2022-11-22T05:51:07.425Z,99486.72
2022-11-22T05:53:35.380Z,99489.28
2022-11-22T05:56:09.659Z,99493.69
2022-11-22T05:58:36.359Z,99486.72
2022-11-22T06:01:08.168Z,99494.53
2022-11-22T06:03:35.802Z,99502.34
2022-11-22T06:06:03.300Z,99507.59
2022-11-22T06:08:31.103Z,99503.19
2022-11-22T06:11:05.102Z,99501.56
2022-11-22T06:13:39.276Z,99504.13
2022-11-22T06:16:06.985Z,99498.06
2022-11-22T06:18:33.978Z,99516.09
2022-11-22T06:21:02.268Z,99527.25
2022-11-22T06:23:29.505Z,99516.84
2022-11-22T06:26:04.277Z,99521.94
2022-11-22T06:28:32.344Z,99519.50
2022-11-22T06:31:15.061Z,99523.81
2022-11-22T06:33:42.372Z,99516.22
2022-11-22T06:36:13.051Z,99513.44
2022-11-22T06:38:40.787Z,99511.75
2022-11-22T06:41:18.549Z,99513.47
2022-11-22T06:43:49.028Z,99501.56
2022-11-22T06:46:19.499Z,99508.38
2022-11-22T06:48:47.125Z,99498.94
2022-11-22T06:51:20.116Z,99498.09
2022-11-22T06:53:48.811Z,99497.28
2022-11-22T06:56:27.050Z,99508.41
2022-11-22T06:58:54.004Z,99508.56
2022-11-22T07:01:28.431Z,99512.03
2022-11-22T07:03:58.327Z,99511.13
2022-11-22T07:06:27.147Z,99505.13
2022-11-22T07:08:54.273Z,99512.03
2022-11-22T07:11:26.302Z,99508.63
2022-11-22T07:13:53.966Z,99520.72
2022-11-22T07:16:21.048Z,99519.03
2022-11-22T07:18:48.329Z,99532.97
2022-11-22T07:21:20.073Z,99523.50
2022-11-22T07:23:48.645Z,99527.03
2022-11-22T07:26:16.284Z,99534.81
2022-11-22T07:28:43.159Z,99533.88
2022-11-22T07:31:11.301Z,99538.06
2022-11-22T07:33:38.331Z,99547.69
2022-11-22T07:36:06.756Z,99551.16
2022-11-22T07:38:33.967Z,99549.47
2022-11-22T07:41:01.046Z,99556.41
2022-11-22T07:43:28.422Z,99546.06
2022-11-22T07:46:01.222Z,99551.22
2022-11-22T07:48:27.837Z,99546.81
2022-11-22T07:50:54.475Z,99551.28
2022-11-22T07:53:21.333Z,99558.09
2022-11-22T07:55:48.071Z,99552.94
2022-11-22T07:58:14.753Z,99547.84
2022-11-22T08:00:41.335Z,99546.94
2022-11-22T08:03:08.726Z,99533.09
2022-11-22T08:05:35.340Z,99540.88
2022-11-22T08:08:01.945Z,99536.69
2022-11-22T08:10:28.538Z,99540.97
2022-11-22T08:12:59.123Z,99540.00
2022-11-22T08:15:26.490Z,99522.06
2022-11-22T08:17:53.331Z,99527.28
2022-11-22T08:20:20.950Z,99520.38
2022-11-22T08:22:47.609Z,99517.72
2022-11-22T08:25:14.247Z,99514.28
2022-11-22T08:27:41.641Z,99509.06
2022-11-22T08:30:10.353Z,99508.28
2022-11-22T08:32:36.959Z,99509.97
2022-11-22T08:35:03.942Z,99509.06
2022-11-22T08:37:30.591Z,99509.16
2022-11-22T08:39:57.411Z,99504.97
2022-11-22T08:42:23.997Z,99506.63
2022-11-22T08:44:51.178Z,99491.88
2022-11-22T08:47:17.810Z,99503.19
2022-11-22T08:49:44.499Z,99499.72
2022-11-22T08:52:11.242Z,99498.72
2022-11-22T08:54:38.357Z,99498.88
2022-11-22T08:57:05.435Z,99495.28
2022-11-22T08:59:32.583Z,99502.16
2022-11-22T09:01:59.750Z,99498.84
2022-11-22T09:04:26.866Z,99498.03
2022-11-22T09:09:40.304Z,99505.78
2022-11-22T09:12:07.312Z,99508.50
2022-11-22T09:14:34.017Z,99515.44
2022-11-22T09:17:00.713Z,99506.81
2022-11-22T09:19:27.310Z,99511.09
2022-11-22T09:21:53.949Z,99514.63
2022-11-22T09:24:20.609Z,99518.09
2022-11-22T09:26:48.441Z,99522.47
2022-11-22T09:29:16.033Z,99531.06
2022-11-22T09:31:43.270Z,99527.59
2022-11-22T09:34:10.017Z,99532.84
2022-11-22T09:36:36.685Z,99530.19
2022-11-22T09:39:03.427Z,99535.44
2022-11-22T09:41:45.314Z,99540.63
2022-11-22T09:44:21.229Z,99538.06
2022-11-22T09:46:56.293Z,99536.28
2022-11-22T09:49:39.075Z,99543.28
2022-11-22T09:52:26.796Z,99542.47
2022-11-22T09:55:00.005Z,99554.50
2022-11-22T09:57:31.690Z,99551.97
2022-11-22T10:00:15.770Z,99542.47
2022-11-22T10:02:59.783Z,99557.97
2022-11-22T10:05:32.156Z,99557.13
2022-11-22T10:08:23.176Z,99552.72
2022-11-22T10:10:52.608Z,99549.25
2022-11-22T10:13:31.124Z,99550.97
2022-11-22T10:16:03.900Z,99540.69
2022-11-22T10:18:41.373Z,99555.94
2022-11-22T10:21:13.098Z,99545.78
2022-11-22T10:23:41.349Z,99547.59
2022-11-22T10:26:21.810Z,99539.94
2022-11-22T10:29:13.292Z,99545.13
2022-11-22T10:31:58.696Z,99542.59
2022-11-22T10:34:29.280Z,99548.53
2022-11-22T10:37:07.500Z,99550.31
2022-11-22T10:39:55.828Z,99546.00
2022-11-22T10:42:28.527Z,99545.19
2022-11-22T10:45:15.705Z,99551.28
2022-11-22T10:47:56.461Z,99552.22
2022-11-22T10:50:29.304Z,99556.53
2022-11-22T10:53:01.977Z,99552.16
2022-11-22T10:55:50.617Z,99557.34
2022-11-22T10:58:20.141Z,99559.06
2022-11-22T11:00:50.511Z,99572.91
2022-11-22T11:03:35.953Z,99571.25
2022-11-22T11:06:37.891Z,99572.78
2022-11-22T11:09:55.182Z,99567.72
2022-11-22T11:11:51.439Z,99581.56
2022-11-22T11:14:24.788Z,99580.75
2022-11-22T11:16:51.600Z,99584.09
2022-11-22T11:19:20.219Z,99580.75
2022-11-22T11:21:55.813Z,99590.16
2022-11-22T11:24:22.407Z,99585.06
2022-11-22T11:26:54.593Z,99575.59
2022-11-22T11:29:24.203Z,99582.44
2022-11-22T11:32:04.304Z,99573.81
2022-11-22T11:34:31.101Z,99568.63
2022-11-22T11:36:58.540Z,99560.00
2022-11-22T11:39:29.940Z,99553.97
2022-11-22T11:41:56.955Z,99560.03
2022-11-22T11:44:33.271Z,99567.81
2022-11-22T11:47:00.320Z,99555.72
2022-11-22T11:49:29.302Z,99560.09
2022-11-22T11:51:58.525Z,99552.25
2022-11-22T11:54:41.685Z,99541.88
2022-11-22T11:57:14.257Z,99549.66
2022-11-22T11:59:40.791Z,99558.25
2022-11-22T12:02:16.779Z,99559.97
2022-11-22T12:04:57.593Z,99548.75
2022-11-22T12:07:44.976Z,99549.66
2022-11-22T12:10:56.071Z,99547.97
2022-11-22T12:13:32.093Z,99556.66
2022-11-22T12:16:12.721Z,99548.03
2022-11-22T12:18:44.457Z,99556.66
2022-11-22T12:21:30.768Z,99553.22
2022-11-22T12:24:45.193Z,99548.06
2022-11-22T12:27:10.059Z,99553.25
2022-11-22T12:29:38.854Z,99550.66
2022-11-22T12:32:11.113Z,99552.34
2022-11-22T12:34:53.661Z,99549.78
2022-11-22T12:37:34.587Z,99546.25
2022-11-22T12:40:04.532Z,99542.78
2022-11-22T12:43:08.388Z,99545.44
2022-11-22T12:45:38.484Z,99546.34
2022-11-22T12:48:08.917Z,99543.72
2022-11-22T12:50:45.602Z,99533.31
2022-11-22T12:53:15.280Z,99535.00
2022-11-22T12:56:09.867Z,99538.50
2022-11-22T12:58:47.203Z,99529.00
2022-11-22T13:01:26.345Z,99528.16
2022-11-22T13:04:01.899Z,99528.16
2022-11-22T13:06:36.923Z,99521.25
2022-11-22T13:09:07.472Z,99520.28
2022-11-22T13:11:41.208Z,99520.38
2022-11-22T13:14:19.340Z,99511.75
2022-11-22T13:16:49.463Z,99507.44
2022-11-22T13:19:17.061Z,99525.53
2022-11-22T13:22:04.899Z,99528.16
2022-11-22T13:24:47.885Z,99531.63
2022-11-22T13:27:21.622Z,99525.59
2022-11-22T13:29:49.948Z,99523.84
2022-11-22T13:32:19.988Z,99527.34
2022-11-22T13:35:11.963Z,99524.69
2022-11-22T13:37:43.952Z,99524.69
2022-11-22T13:40:23.034Z,99516.88
2022-11-22T13:43:22.376Z,99514.28
2022-11-22T13:46:16.147Z,99516.91
2022-11-22T13:48:42.623Z,99514.34
2022-11-22T13:51:15.278Z,99511.75
2022-11-22T13:53:44.298Z,99507.44
2022-11-22T13:56:16.969Z,99496.16
2022-11-22T13:58:52.291Z,99490.88
2022-11-22T14:01:34.743Z,99489.22
2022-11-22T14:04:18.021Z,99484.03
2022-11-22T14:06:54.698Z,99491.81
2022-11-22T14:09:37.469Z,99505.66
2022-11-22T14:12:20.538Z,99510.84
2022-11-22T14:15:12.007Z,99504.78
2022-11-22T14:17:48.066Z,99521.25
2022-11-22T14:21:00.351Z,99518.66
2022-11-22T14:23:49.123Z,99528.16
2022-11-22T14:26:25.133Z,99533.34
2022-11-22T14:29:11.607Z,99530.75
2022-11-22T14:31:39.227Z,99524.72
2022-11-22T14:34:16.233Z,99522.13
2022-11-22T14:36:43.852Z,99527.28
2022-11-22T14:39:44.879Z,99531.59
2022-11-22T14:42:38.892Z,99529.81
2022-11-22T14:45:10.202Z,99535.94
2022-11-22T14:48:04.515Z,99531.66
2022-11-22T14:50:37.307Z,99532.50
2022-11-22T14:53:28.124Z,99531.59
2022-11-22T14:56:03.825Z,99538.50
2022-11-22T14:58:31.439Z,99542.00
2022-11-22T15:01:24.553Z,99539.41
2022-11-22T15:09:14.763Z,99542.84
2022-11-22T15:09:24.043Z,99535.13
2022-11-22T15:10:08.381Z,99543.72
2022-11-22T15:13:08.525Z,99548.88
2022-11-22T15:59:40.404Z,99543.69
2022-11-22T16:02:13.609Z,99541.09
2022-11-22T16:04:47.134Z,99544.59
2022-11-22T16:07:29.291Z,99546.28
2022-11-22T16:09:56.017Z,99552.38
2022-11-22T16:12:35.591Z,99555.84
2022-11-22T16:15:36.128Z,99560.19
2022-11-22T16:18:10.431Z,99561.03
2022-11-22T16:20:38.975Z,99560.13
2022-11-22T16:23:15.082Z,99566.22
2022-11-22T16:25:44.517Z,99567.97
2022-11-22T16:28:21.542Z,99558.41
2022-11-22T16:30:48.249Z,99561.94
2022-11-22T16:33:15.000Z,99561.91
2022-11-22T16:35:41.607Z,99561.03
2022-11-22T16:38:08.172Z,99565.41
2022-11-22T16:40:42.831Z,99575.78
2022-11-22T16:43:15.313Z,99580.97
2022-11-22T16:45:42.375Z,99579.22
2022-11-22T16:48:37.378Z,99575.78
2022-11-22T16:51:06.275Z,99566.28
2022-11-22T16:53:47.650Z,99561.09
2022-11-22T16:56:22.632Z,99564.53
2022-11-22T16:58:50.499Z,99564.50
2022-11-22T17:01:22.129Z,99566.22
2022-11-22T17:03:50.573Z,99569.72
2022-11-22T17:06:20.348Z,99574.97
2022-11-22T17:08:48.379Z,99568.88
2022-11-22T17:11:17.049Z,99574.94
2022-11-22T17:13:43.682Z,99581.88
2022-11-22T17:16:11.446Z,99575.84
2022-11-22T17:18:38.922Z,99581.03
2022-11-22T17:21:10.484Z,99583.63
2022-11-22T17:23:38.437Z,99580.16
2022-11-22T17:26:05.708Z,99588.84
2022-11-22T17:28:32.299Z,99578.44
2022-11-22T17:30:59.642Z,99588.72
2022-11-22T17:33:26.277Z,99582.75
2022-11-22T17:35:53.033Z,99582.75
2022-11-22T17:38:19.673Z,99581.94
2022-11-22T17:40:46.396Z,99581.88
2022-11-22T17:43:13.338Z,99587.13
2022-11-22T17:45:42.908Z,99581.00
2022-11-22T17:48:15.891Z,99585.34
2022-11-22T17:50:42.487Z,99589.72
2022-11-22T17:53:09.065Z,99594.00
2022-11-22T17:56:08.484Z,99594.88
2022-11-22T17:58:24.494Z,99600.09
2022-11-22T18:00:51.074Z,99602.75
2022-11-22T18:03:17.682Z,99602.72
2022-11-22T18:05:44.401Z,99605.34
2022-11-22T18:08:11.027Z,99600.94
2022-11-22T18:10:38.485Z,99605.34
2022-11-22T18:13:20.878Z,99611.34
2022-11-22T18:15:52.365Z,99608.72
2022-11-22T18:18:48.537Z,99614.81
2022-11-22T18:21:11.420Z,99612.22
2022-11-22T18:23:41.856Z,99612.22
2022-11-22T18:29:32.582Z,99627.81
2022-11-22T18:31:54.035Z,99623.47
2022-11-22T18:34:24.384Z,99624.34
2022-11-22T18:37:06.766Z,99629.53
2022-11-22T18:39:36.278Z,99634.69
2022-11-22T18:42:10.061Z,99636.44
2022-11-22T18:44:36.671Z,99637.34
2022-11-22T18:47:03.460Z,99643.44
2022-11-22T18:49:30.573Z,99647.72
2022-11-22T18:51:57.658Z,99642.56
2022-11-22T18:54:24.490Z,99644.34
2022-11-22T18:56:51.550Z,99641.75
2022-11-22T18:59:18.641Z,99640.00
2022-11-22T19:01:45.344Z,99639.06
2022-11-22T19:04:14.120Z,99633.84
2022-11-22T19:06:41.937Z,99617.44
2022-11-22T19:09:09.131Z,99623.47
2022-11-22T19:11:35.829Z,99626.13
2022-11-22T19:14:02.444Z,99627.88
2022-11-22T19:16:30.281Z,99626.13
2022-11-22T19:18:57.738Z,99627.88
2022-11-22T19:21:26.727Z,99631.34
2022-11-22T19:23:53.378Z,99633.00
2022-11-22T19:26:21.964Z,99639.06
2022-11-22T19:28:49.200Z,99642.66
2022-11-22T19:31:20.805Z,99644.31
2022-11-22T19:33:47.694Z,99644.34
2022-11-22T19:36:16.704Z,99646.06
2022-11-22T19:38:43.772Z,99651.22
2022-11-22T19:41:11.758Z,99662.47
2022-11-22T19:43:39.500Z,99664.22
2022-11-22T19:46:06.733Z,99664.22
2022-11-22T19:48:35.382Z,99669.50
2022-11-22T19:51:09.447Z,99674.66
2022-11-22T19:53:36.186Z,99678.13
2022-11-22T19:56:23.324Z,99678.09
2022-11-22T19:58:52.125Z,99682.44
2022-11-22T20:01:19.639Z,99678.94
2022-11-22T20:03:46.871Z,99675.47
2022-11-22T20:06:14.578Z,99685.88
2022-11-22T20:08:41.717Z,99669.41
2022-11-22T20:11:11.145Z,99671.19
2022-11-22T20:13:39.645Z,99662.47
2022-11-22T20:16:17.667Z,99659.06
2022-11-22T20:18:44.370Z,99662.56
2022-11-22T20:21:11.131Z,99664.25
2022-11-22T20:23:38.512Z,99650.44
2022-11-22T20:26:13.063Z,99652.16
2022-11-22T20:28:40.825Z,99650.47
2022-11-22T20:31:09.189Z,99646.16
2022-11-22T20:33:37.084Z,99658.28
2022-11-22T20:36:15.006Z,99655.63
2022-11-22T20:38:42.557Z,99673.75
2022-11-22T20:41:11.060Z,99665.06
2022-11-22T20:43:38.252Z,99666.03
2022-11-22T20:46:05.912Z,99662.53
2022-11-22T20:48:33.181Z,99666.84
2022-11-22T20:51:01.645Z,99659.06
2022-11-22T20:53:31.441Z,99654.78
2022-11-22T20:55:58.078Z,99648.75
2022-11-22T20:58:26.160Z,99653.06
2022-11-22T21:00:56.156Z,99662.53
2022-11-22T21:03:23.829Z,99662.56
2022-11-22T21:05:52.389Z,99660.84
2022-11-22T21:08:19.993Z,99659.94
2022-11-22T21:10:46.858Z,99647.81
2022-11-22T21:13:13.955Z,99649.56
2022-11-22T21:15:40.790Z,99647.00
2022-11-22T21:18:24.712Z,99645.28
2022-11-22T21:21:01.468Z,99645.25
2022-11-22T21:23:28.066Z,99643.53
2022-11-22T21:25:55.130Z,99640.09
2022-11-22T21:28:22.254Z,99634.00
2022-11-22T21:30:56.138Z,99641.78
2022-11-22T21:33:23.193Z,99644.38
2022-11-22T21:35:51.873Z,99641.78
2022-11-22T21:38:19.287Z,99646.06
2022-11-22T21:40:53.820Z,99642.59
2022-11-22T21:43:25.594Z,99649.50
2022-11-22T21:45:54.291Z,99645.22
2022-11-22T21:48:23.505Z,99643.47
2022-11-22T21:50:55.538Z,99649.53
2022-11-22T21:53:24.638Z,99643.47
2022-11-22T21:55:53.582Z,99648.72
2022-11-22T21:58:21.416Z,99658.28
2022-11-22T22:00:49.383Z,99667.81
2022-11-22T22:03:19.892Z,99668.66
2022-11-22T22:05:54.516Z,99672.13
2022-11-22T22:08:21.317Z,99670.34
2022-11-22T22:10:49.595Z,99664.31
2022-11-22T22:13:17.268Z,99669.53
2022-11-22T22:15:43.888Z,99668.63
2022-11-22T22:18:10.510Z,99666.03
2022-11-22T22:20:37.337Z,99669.50
2022-11-22T22:23:04.127Z,99676.38
2022-11-22T22:25:30.776Z,99653.94
2022-11-22T22:27:58.564Z,99659.97
2022-11-22T22:30:25.449Z,99660.84
2022-11-22T22:32:52.513Z,99661.69
2022-11-22T22:35:23.146Z,99662.59
2022-11-22T22:37:49.977Z,99666.03
2022-11-22T22:40:17.231Z,99669.53
2022-11-22T22:42:43.868Z,99674.69
2022-11-22T22:45:11.087Z,99688.59
2022-11-22T22:47:38.098Z,99686.81
2022-11-22T22:50:05.003Z,99686.81
2022-11-22T22:52:34.886Z,99704.13
2022-11-22T22:55:01.548Z,99692.00
2022-11-22T22:57:28.900Z,99692.97
2022-11-22T22:59:55.758Z,99692.06
2022-11-22T23:02:22.584Z,99688.56
2022-11-22T23:04:49.334Z,99682.53
2022-11-22T23:07:16.100Z,99682.53
2022-11-22T23:09:42.760Z,99679.06
2022-11-22T23:12:12.338Z,99672.97
2022-11-22T23:14:40.169Z,99682.47
2022-11-22T23:17:10.186Z,99674.72
2022-11-22T23:19:37.301Z,99667.81
2022-11-22T23:22:04.512Z,99666.94
2022-11-22T23:24:32.444Z,99661.63
2022-11-22T23:27:01.699Z,99662.56
2022-11-22T23:29:28.598Z,99667.84
2022-11-22T23:31:55.637Z,99661.72
2022-11-22T23:34:25.219Z,99666.97
2022-11-22T23:36:52.100Z,99656.47
2022-11-22T23:39:19.080Z,99666.03
2022-11-22T23:41:45.845Z,99666.84
2022-11-22T23:44:12.840Z,99664.25
2022-11-22T23:46:39.730Z,99656.50
2022-11-22T23:49:06.954Z,99662.63
2022-11-22T23:51:34.973Z,99660.03
2022-11-22T23:54:04.412Z,99662.63
2022-11-22T23:56:32.590Z,99660.00
2022-11-22T23:58:59.871Z,99657.34
